createdAt,value
2018-12-09T00:01:23.594Z,2.00
2018-12-09T00:03:51.172Z,2.10
2018-12-09T00:06:18.724Z,2.30
2018-12-09T00:08:46.293Z,2.70
2018-12-09T00:11:13.830Z,2.20
2018-12-09T00:13:41.358Z,2.20
2018-12-09T00:16:08.953Z,2.00
2018-12-09T00:18:36.566Z,2.67
2018-12-09T00:21:04.252Z,2.10
2018-12-09T00:23:31.841Z,2.10
2018-12-09T00:25:59.400Z,2.00
2018-12-09T00:28:26.973Z,1.70
2018-12-09T00:30:54.541Z,2.07
2018-12-09T00:33:22.093Z,2.10
2018-12-09T00:35:49.649Z,1.90
2018-12-09T00:38:17.211Z,2.20
2018-12-09T00:40:44.778Z,2.20
2018-12-09T00:43:12.332Z,2.10
2018-12-09T00:45:39.926Z,2.17
2018-12-09T00:48:07.461Z,1.93
2018-12-09T00:50:35.033Z,2.10
2018-12-09T00:53:02.603Z,2.23
2018-12-09T00:55:30.135Z,2.33
2018-12-09T00:57:57.664Z,2.33
2018-12-09T01:00:25.214Z,3.23
2018-12-09T01:02:52.793Z,1.90
2018-12-09T01:05:20.329Z,2.10
2018-12-09T01:07:47.885Z,2.00
2018-12-09T01:10:15.463Z,3.40
2018-12-09T01:12:43.052Z,2.10
2018-12-09T01:15:10.549Z,2.10
2018-12-09T01:17:38.101Z,2.10
2018-12-09T01:20:06.939Z,2.27
2018-12-09T01:22:34.732Z,2.20
2018-12-09T01:25:02.265Z,2.40
2018-12-09T01:27:29.800Z,2.00
2018-12-09T01:29:57.390Z,2.20
2018-12-09T01:32:25.221Z,2.00
2018-12-09T01:34:52.790Z,2.10
2018-12-09T01:37:20.352Z,2.10
2018-12-09T01:39:48.310Z,1.97
2018-12-09T01:42:15.880Z,4.13
2018-12-09T01:44:43.478Z,2.23
2018-12-09T01:47:11.026Z,2.00
2018-12-09T01:49:38.593Z,2.03
2018-12-09T01:52:06.472Z,2.20
2018-12-09T01:54:33.970Z,2.60
2018-12-09T01:57:01.629Z,2.30
2018-12-09T01:59:29.238Z,2.00
2018-12-09T02:01:56.791Z,2.13
2018-12-09T02:04:24.347Z,2.00
2018-12-09T02:06:51.933Z,1.90
2018-12-09T02:09:19.497Z,2.23
2018-12-09T02:11:47.005Z,2.10
2018-12-09T02:14:14.562Z,2.13
2018-12-09T02:16:42.143Z,2.20
2018-12-09T02:19:14.708Z,2.20
2018-12-09T02:21:42.979Z,1.90
2018-12-09T02:24:10.591Z,1.90
2018-12-09T02:26:38.134Z,2.67
2018-12-09T02:29:05.694Z,2.20
2018-12-09T02:31:33.273Z,2.13
2018-12-09T02:34:00.889Z,1.90
2018-12-09T02:36:28.433Z,6.23
2018-12-09T02:38:56.043Z,2.10
2018-12-09T02:41:23.631Z,2.00
2018-12-09T02:43:51.258Z,2.20
2018-12-09T02:46:18.919Z,2.20
2018-12-09T02:48:46.799Z,2.00
2018-12-09T02:51:14.362Z,1.80
2018-12-09T02:53:41.919Z,1.90
2018-12-09T02:56:09.485Z,1.80
2018-12-09T02:58:37.025Z,1.90
2018-12-09T03:01:05.004Z,1.97
2018-12-09T03:03:32.526Z,1.90
2018-12-09T03:06:00.130Z,1.90
2018-12-09T03:08:27.676Z,2.00
2018-12-09T03:10:55.262Z,2.80
2018-12-09T03:13:22.813Z,1.90
2018-12-09T03:15:50.378Z,4.00
2018-12-09T03:18:17.903Z,2.00
2018-12-09T03:20:45.465Z,1.97
2018-12-09T03:23:13.034Z,2.10
2018-12-09T03:25:40.575Z,2.80
2018-12-09T03:28:08.158Z,2.50
2018-12-09T03:30:35.756Z,3.07
2018-12-09T03:33:03.356Z,2.10
2018-12-09T03:35:30.973Z,2.07
2018-12-09T03:37:58.509Z,2.10
2018-12-09T03:40:26.030Z,2.10
2018-12-09T03:42:53.600Z,2.40
2018-12-09T03:45:21.159Z,2.10
2018-12-09T03:47:48.743Z,4.70
2018-12-09T03:50:16.321Z,4.80
2018-12-09T03:52:43.875Z,4.73
2018-12-09T03:55:11.428Z,4.00
2018-12-09T03:57:38.959Z,4.20
2018-12-09T04:00:07.222Z,8.23
2018-12-09T04:02:34.896Z,4.97
2018-12-09T04:05:02.462Z,2.87
2018-12-09T04:07:30.028Z,8.47
2018-12-09T04:09:57.593Z,7.37
2018-12-09T04:12:25.180Z,4.50
2018-12-09T04:14:52.750Z,3.90
2018-12-09T04:17:20.312Z,6.87
2018-12-09T04:19:47.892Z,4.80
2018-12-09T04:22:15.472Z,2.33
2018-12-09T04:24:43.011Z,6.20
2018-12-09T04:27:10.568Z,4.23
2018-12-09T04:29:38.204Z,4.07
2018-12-09T04:32:05.766Z,2.20
2018-12-09T04:34:33.365Z,5.30
2018-12-09T04:37:00.942Z,2.50
2018-12-09T04:39:28.510Z,2.23
2018-12-09T04:41:56.078Z,3.53
2018-12-09T04:44:23.649Z,3.47
2018-12-09T04:46:51.230Z,3.97
2018-12-09T04:49:18.761Z,2.73
2018-12-09T04:51:55.005Z,4.60
2018-12-09T04:54:22.862Z,2.57
2018-12-09T04:56:50.442Z,2.10
2018-12-09T04:59:19.279Z,2.93
2018-12-09T05:01:46.930Z,2.27
2018-12-09T05:04:14.540Z,2.17
2018-12-09T05:06:42.102Z,2.63
2018-12-09T05:09:09.610Z,2.10
2018-12-09T05:11:37.162Z,2.20
2018-12-09T05:14:05.109Z,2.27
2018-12-09T05:16:32.659Z,2.13
2018-12-09T05:19:00.219Z,3.17
2018-12-09T05:21:27.795Z,2.23
2018-12-09T05:23:55.368Z,3.23
2018-12-09T05:26:23.242Z,3.93
2018-12-09T05:28:50.783Z,3.90
2018-12-09T05:31:18.373Z,2.37
2018-12-09T05:33:45.986Z,2.90
2018-12-09T05:36:13.535Z,3.47
2018-12-09T05:38:41.525Z,3.70
2018-12-09T05:41:09.080Z,3.37
2018-12-09T05:43:36.638Z,6.53
2018-12-09T05:46:04.195Z,8.17
2018-12-09T05:48:31.753Z,6.30
2018-12-09T05:50:59.841Z,4.17
2018-12-09T05:53:27.393Z,6.07
2018-12-09T05:55:54.946Z,4.77
2018-12-09T05:58:24.496Z,8.73
2018-12-09T06:00:52.060Z,10.57
2018-12-09T06:03:20.097Z,4.27
2018-12-09T06:05:47.613Z,8.10
2018-12-09T06:08:15.195Z,5.70
2018-12-09T06:10:42.721Z,5.10
2018-12-09T06:13:10.318Z,7.40
2018-12-09T06:15:37.869Z,5.33
2018-12-09T06:18:05.423Z,4.57
2018-12-09T06:20:33.126Z,4.67
2018-12-09T06:23:00.716Z,5.63
2018-12-09T06:25:28.279Z,5.80
2018-12-09T06:27:55.854Z,7.33
2018-12-09T06:30:23.381Z,5.70
2018-12-09T06:32:50.974Z,8.93
2018-12-09T06:35:18.521Z,5.50
2018-12-09T06:37:46.055Z,2.67
2018-12-09T06:40:13.595Z,3.63
2018-12-09T06:42:41.137Z,3.03
2018-12-09T06:45:08.701Z,4.17
2018-12-09T06:47:36.215Z,4.00
2018-12-09T06:50:04.248Z,2.80
2018-12-09T06:52:31.795Z,3.40
2018-12-09T06:54:59.355Z,3.03
2018-12-09T06:57:26.899Z,3.60
2018-12-09T06:59:54.555Z,4.03
2018-12-09T07:02:22.121Z,3.77
2018-12-09T07:04:49.656Z,5.20
2018-12-09T07:07:17.182Z,3.83
2018-12-09T07:09:44.770Z,5.03
2018-12-09T07:12:13.946Z,2.40
2018-12-09T07:14:41.534Z,5.00
2018-12-09T07:17:09.113Z,4.73
2018-12-09T07:19:39.607Z,2.70
2018-12-09T07:22:07.190Z,2.40
2018-12-09T07:24:34.705Z,3.33
2018-12-09T07:27:02.285Z,2.60
2018-12-09T07:29:29.831Z,3.73
2018-12-09T07:31:57.389Z,3.27
2018-12-09T07:34:25.023Z,3.13
2018-12-09T07:36:54.392Z,3.30
2018-12-09T07:39:22.498Z,2.93
2018-12-09T07:41:50.067Z,3.30
2018-12-09T07:44:17.638Z,2.60
2018-12-09T07:46:45.164Z,5.63
2018-12-09T07:49:12.729Z,3.73
2018-12-09T07:51:40.314Z,3.77
2018-12-09T07:54:07.869Z,5.77
2018-12-09T07:56:35.910Z,3.53
2018-12-09T07:59:03.562Z,3.60
2018-12-09T08:01:31.114Z,4.03
2018-12-09T08:03:58.630Z,2.77
2018-12-09T08:06:26.146Z,3.43
2018-12-09T08:08:53.742Z,4.70
2018-12-09T08:11:21.303Z,2.37
2018-12-09T08:13:48.836Z,4.70
2018-12-09T08:16:16.372Z,2.70
2018-12-09T08:18:43.948Z,2.87
2018-12-09T08:21:11.479Z,5.90
2018-12-09T08:23:39.022Z,3.20
2018-12-09T08:26:06.564Z,4.37
2018-12-09T08:28:34.741Z,4.57
2018-12-09T08:31:02.339Z,4.00
2018-12-09T08:33:29.975Z,3.13
2018-12-09T08:35:57.595Z,6.20
2018-12-09T08:38:25.179Z,3.73
2018-12-09T08:40:52.708Z,3.50
2018-12-09T08:43:20.234Z,3.30
2018-12-09T08:45:47.827Z,4.20
2018-12-09T08:48:15.352Z,3.67
2018-12-09T08:50:42.927Z,5.87
2018-12-09T08:53:10.437Z,2.50
2018-12-09T08:55:37.936Z,2.37
2018-12-09T08:58:05.549Z,2.63
2018-12-09T09:00:33.110Z,2.60
2018-12-09T09:03:00.759Z,2.33
2018-12-09T09:05:28.323Z,2.53
2018-12-09T09:07:55.930Z,3.07
2018-12-09T09:10:23.563Z,2.60
2018-12-09T09:12:51.216Z,7.07
2018-12-09T09:15:18.767Z,2.40
2018-12-09T09:17:46.301Z,4.33
2018-12-09T09:20:13.896Z,3.87
2018-12-09T09:22:41.462Z,7.00
2018-12-09T09:25:09.030Z,4.67
2018-12-09T09:27:36.619Z,4.13
2018-12-09T09:30:05.376Z,5.47
2018-12-09T09:32:32.991Z,6.27
2018-12-09T09:35:00.558Z,2.67
2018-12-09T09:37:28.126Z,6.23
2018-12-09T09:39:55.792Z,4.60
2018-12-09T09:42:23.403Z,3.13
2018-12-09T09:44:51.661Z,5.60
2018-12-09T09:47:19.244Z,4.07
2018-12-09T09:49:46.871Z,5.33
2018-12-09T09:52:14.431Z,6.30
2018-12-09T09:54:41.991Z,4.40
2018-12-09T09:57:09.646Z,5.30
2018-12-09T09:59:47.293Z,5.63
2018-12-09T10:02:14.841Z,5.93
2018-12-09T10:04:42.401Z,8.53
2018-12-09T10:07:09.954Z,11.90
2018-12-09T10:09:37.549Z,6.90
2018-12-09T10:12:05.115Z,12.00
2018-12-09T10:14:32.661Z,4.80
2018-12-09T10:17:00.233Z,7.37
2018-12-09T10:19:27.792Z,9.10
2018-12-09T10:21:55.345Z,8.03
2018-12-09T10:24:23.059Z,7.80
2018-12-09T10:26:50.615Z,5.77
2018-12-09T10:29:18.222Z,7.87
2018-12-09T10:31:45.803Z,9.93
2018-12-09T10:34:13.338Z,7.43
2018-12-09T10:36:40.961Z,6.87
2018-12-09T10:39:08.535Z,10.17
2018-12-09T10:41:36.090Z,11.40
2018-12-09T10:44:03.632Z,10.90
2018-12-09T10:46:31.179Z,13.00
2018-12-09T10:48:58.724Z,12.40
2018-12-09T10:51:26.286Z,9.33
2018-12-09T10:53:53.886Z,9.43
2018-12-09T10:56:21.403Z,9.63
2018-12-09T10:58:48.947Z,14.47
2018-12-09T11:01:21.961Z,11.00
2018-12-09T11:03:50.731Z,13.17
2018-12-09T11:06:18.590Z,10.77
2018-12-09T11:08:46.122Z,8.87
2018-12-09T11:11:13.649Z,12.03
2018-12-09T11:13:41.207Z,16.30
2018-12-09T11:16:08.802Z,18.90
2018-12-09T11:18:36.368Z,17.13
2018-12-09T11:21:03.913Z,10.43
2018-12-09T11:23:31.488Z,10.40
2018-12-09T11:25:59.016Z,6.30
2018-12-09T11:28:26.600Z,5.23
2018-12-09T11:30:54.150Z,4.87
2018-12-09T11:33:22.342Z,5.20
2018-12-09T11:35:49.948Z,5.27
2018-12-09T11:38:17.541Z,5.97
2018-12-09T11:40:45.137Z,11.10
2018-12-09T11:43:12.751Z,7.67
2018-12-09T11:45:40.400Z,7.93
2018-12-09T11:48:08.028Z,7.67
2018-12-09T11:50:35.600Z,10.77
2018-12-09T11:53:03.146Z,10.27
2018-12-09T11:55:30.645Z,7.80
2018-12-09T11:57:58.259Z,5.70
2018-12-09T12:00:25.826Z,11.00
2018-12-09T12:02:53.336Z,11.07
2018-12-09T12:05:20.935Z,9.23
2018-12-09T12:07:48.511Z,8.30
2018-12-09T12:10:16.064Z,8.83
2018-12-09T12:12:43.632Z,11.10
2018-12-09T12:15:11.193Z,8.37
2018-12-09T12:17:38.763Z,6.30
2018-12-09T12:20:07.793Z,11.23
2018-12-09T12:22:35.349Z,11.73
2018-12-09T12:25:02.890Z,12.50
2018-12-09T12:27:30.428Z,10.93
2018-12-09T12:29:58.020Z,10.47
2018-12-09T12:32:25.988Z,9.03
2018-12-09T12:34:53.568Z,9.40
2018-12-09T12:37:21.903Z,10.60
2018-12-09T12:39:49.445Z,9.00
2018-12-09T12:42:17.070Z,9.47
2018-12-09T12:44:44.647Z,7.13
2018-12-09T12:47:12.227Z,8.40
2018-12-09T12:49:39.775Z,9.97
2018-12-09T12:52:07.325Z,6.00
2018-12-09T12:54:34.863Z,6.43
2018-12-09T12:57:02.494Z,7.00
2018-12-09T12:59:30.170Z,6.07
2018-12-09T13:01:57.720Z,6.93
2018-12-09T13:04:25.316Z,6.67
2018-12-09T13:06:52.888Z,8.30
2018-12-09T13:09:20.434Z,9.10
2018-12-09T13:11:48.016Z,7.23
2018-12-09T13:14:15.621Z,6.57
2018-12-09T13:16:43.162Z,5.37
2018-12-09T13:19:10.740Z,7.60
2018-12-09T13:21:38.308Z,8.43
2018-12-09T13:24:05.878Z,6.23
2018-12-09T13:26:33.453Z,5.23
2018-12-09T13:29:00.989Z,7.37
2018-12-09T13:31:28.548Z,6.83
2018-12-09T13:33:56.092Z,5.20
2018-12-09T13:36:23.615Z,6.17
2018-12-09T13:38:51.228Z,6.63
2018-12-09T13:41:18.787Z,6.67
2018-12-09T13:43:46.350Z,7.63
2018-12-09T13:46:14.000Z,5.23
2018-12-09T13:48:41.581Z,5.37
2018-12-09T13:51:09.343Z,12.13
2018-12-09T13:53:36.909Z,8.07
2018-12-09T13:56:04.440Z,6.83
2018-12-09T13:58:32.088Z,4.27
2018-12-09T14:00:59.671Z,3.10
2018-12-09T14:03:27.235Z,4.33
2018-12-09T14:05:54.833Z,7.00
2018-12-09T14:08:22.413Z,5.10
2018-12-09T14:10:49.975Z,5.50
2018-12-09T14:13:17.549Z,6.53
2018-12-09T14:15:45.125Z,6.67
2018-12-09T14:18:12.770Z,6.27
2018-12-09T14:20:40.323Z,12.97
2018-12-09T14:23:08.068Z,12.00
2018-12-09T14:25:35.635Z,9.70
2018-12-09T14:28:03.174Z,6.23
2018-12-09T14:30:30.900Z,4.83
2018-12-09T14:32:58.469Z,5.17
2018-12-09T14:35:26.008Z,5.93
2018-12-09T14:37:53.543Z,5.60
2018-12-09T14:40:21.210Z,6.23
2018-12-09T14:42:48.814Z,6.93
2018-12-09T14:45:16.419Z,11.70
2018-12-09T14:47:43.983Z,11.70
2018-12-09T14:50:11.552Z,10.40
2018-12-09T14:52:39.118Z,11.83
2018-12-09T14:55:06.755Z,8.33
2018-12-09T14:57:34.321Z,9.53
2018-12-09T15:00:01.961Z,9.37
2018-12-09T15:02:29.575Z,7.67
2018-12-09T15:04:57.131Z,11.43
2018-12-09T15:07:24.710Z,6.00
2018-12-09T15:09:52.496Z,5.57
2018-12-09T15:12:20.313Z,7.13
2018-12-09T15:14:47.864Z,5.20
2018-12-09T15:17:15.458Z,5.43
2018-12-09T15:19:42.975Z,4.50
2018-12-09T15:22:10.552Z,3.77
2018-12-09T15:24:41.563Z,4.50
2018-12-09T15:27:08.261Z,3.43
2018-12-09T15:29:35.888Z,3.77
2018-12-09T15:32:03.446Z,4.73
2018-12-09T15:34:30.998Z,5.03
2018-12-09T15:36:58.581Z,3.43
2018-12-09T15:39:26.192Z,3.53
2018-12-09T15:41:53.828Z,2.80
2018-12-09T15:44:21.449Z,3.73
2018-12-09T15:46:49.061Z,4.73
2018-12-09T15:49:16.716Z,4.60
2018-12-09T15:51:44.247Z,4.23
2018-12-09T15:54:11.935Z,3.23
2018-12-09T15:56:39.501Z,3.60
2018-12-09T15:59:07.069Z,3.83
2018-12-09T16:01:34.665Z,3.90
2018-12-09T16:04:02.225Z,3.53
2018-12-09T16:06:29.797Z,3.20
2018-12-09T16:08:57.316Z,3.50
2018-12-09T16:11:24.880Z,4.20
2018-12-09T16:13:52.426Z,3.70
2018-12-09T16:16:20.002Z,3.73
2018-12-09T16:18:47.548Z,3.83
2018-12-09T16:21:15.115Z,4.90
2018-12-09T16:23:42.665Z,5.57
2018-12-09T16:26:10.244Z,5.03
2018-12-09T16:28:37.779Z,5.00
2018-12-09T16:31:05.315Z,5.57
2018-12-09T16:33:32.930Z,5.37
2018-12-09T16:36:00.514Z,4.30
2018-12-09T16:38:28.069Z,4.00
2018-12-09T16:40:55.592Z,4.40
2018-12-09T16:43:23.146Z,4.57
2018-12-09T16:45:50.713Z,5.77
2018-12-09T16:48:18.325Z,5.40
2018-12-09T16:50:45.868Z,5.17
2018-12-09T16:53:13.445Z,4.83
2018-12-09T16:55:40.989Z,6.20
2018-12-09T16:58:08.509Z,5.17
2018-12-09T17:00:36.068Z,4.67
2018-12-09T17:03:03.631Z,6.17
2018-12-09T17:05:31.176Z,6.13
2018-12-09T17:07:58.707Z,5.40
2018-12-09T17:10:26.250Z,6.03
2018-12-09T17:12:53.811Z,7.67
2018-12-09T17:15:21.372Z,6.27
2018-12-09T17:17:48.921Z,4.47
2018-12-09T17:20:16.464Z,3.40
2018-12-09T17:22:44.015Z,4.07
2018-12-09T17:25:11.582Z,4.40
2018-12-09T17:27:39.123Z,4.37
2018-12-09T17:30:07.054Z,5.03
2018-12-09T17:32:34.657Z,3.30
2018-12-09T17:35:02.234Z,5.17
2018-12-09T17:37:29.809Z,6.37
2018-12-09T17:39:57.351Z,4.83
2018-12-09T17:42:24.901Z,4.77
2018-12-09T17:44:52.444Z,4.83
2018-12-09T17:47:20.039Z,6.53
2018-12-09T17:49:47.560Z,4.87
2018-12-09T17:52:15.158Z,4.60
2018-12-09T17:54:42.830Z,5.93
2018-12-09T17:57:10.378Z,4.47
2018-12-09T17:59:37.949Z,4.33
2018-12-09T18:02:05.704Z,3.93
2018-12-09T18:04:33.272Z,4.13
2018-12-09T18:07:00.849Z,3.63
2018-12-09T18:09:28.400Z,4.60
2018-12-09T18:11:56.046Z,4.60
2018-12-09T18:14:23.675Z,3.90
2018-12-09T18:16:51.235Z,4.03
2018-12-09T18:19:18.825Z,3.63
2018-12-09T18:21:46.410Z,4.17
2018-12-09T18:24:14.024Z,3.70
2018-12-09T18:26:41.608Z,3.90
2018-12-09T18:29:09.130Z,3.43
2018-12-09T18:31:36.710Z,3.70
2018-12-09T18:34:04.229Z,4.47
2018-12-09T18:36:31.806Z,3.50
2018-12-09T18:38:59.369Z,5.43
2018-12-09T18:41:26.899Z,4.53
2018-12-09T18:43:54.416Z,4.80
2018-12-09T18:46:21.943Z,4.07
2018-12-09T18:48:49.470Z,5.10
2018-12-09T18:51:17.036Z,5.60
2018-12-09T18:53:44.636Z,5.20
2018-12-09T18:56:12.267Z,4.40
2018-12-09T18:58:39.895Z,5.67
2018-12-09T19:01:07.466Z,5.10
2018-12-09T19:03:35.059Z,5.10
2018-12-09T19:06:02.610Z,5.40
2018-12-09T19:08:30.158Z,6.17
2018-12-09T19:10:57.760Z,5.77
2018-12-09T19:13:25.346Z,5.50
2018-12-09T19:15:52.899Z,5.57
2018-12-09T19:18:20.456Z,4.70
2018-12-09T19:20:48.160Z,6.53
2018-12-09T19:23:15.737Z,5.10
2018-12-09T19:25:43.401Z,6.10
2018-12-09T19:28:10.953Z,5.60
2018-12-09T19:30:38.473Z,6.03
2018-12-09T19:33:05.956Z,6.10
2018-12-09T19:35:33.631Z,6.90
2018-12-09T19:38:01.395Z,6.67
2018-12-09T19:40:28.991Z,7.40
2018-12-09T19:42:56.575Z,7.40
2018-12-09T19:45:24.109Z,8.80
2018-12-09T19:47:51.737Z,8.23
2018-12-09T19:50:19.409Z,8.20
2018-12-09T19:52:46.972Z,6.37
2018-12-09T19:55:14.511Z,6.33
2018-12-09T19:57:42.068Z,5.33
2018-12-09T20:00:09.662Z,6.90
2018-12-09T20:02:37.222Z,3.70
2018-12-09T20:05:06.491Z,4.53
2018-12-09T20:07:34.034Z,3.87
2018-12-09T20:10:01.595Z,3.27
2018-12-09T20:12:29.178Z,3.83
2018-12-09T20:14:58.460Z,3.13
2018-12-09T20:17:26.027Z,3.10
2018-12-09T20:19:53.557Z,2.80
2018-12-09T20:22:21.080Z,3.40
2018-12-09T20:24:48.649Z,3.47
2018-12-09T20:27:16.330Z,3.37
2018-12-09T20:29:43.961Z,4.30
2018-12-09T20:32:11.535Z,4.87
2018-12-09T20:34:39.058Z,5.07
2018-12-09T20:37:06.603Z,5.40
2018-12-09T20:39:34.212Z,3.47
2018-12-09T20:42:01.769Z,4.30
2018-12-09T20:44:29.299Z,5.03
2018-12-09T20:46:56.958Z,4.43
2018-12-09T20:49:24.501Z,5.63
2018-12-09T20:51:52.170Z,4.20
2018-12-09T20:54:19.699Z,5.87
2018-12-09T20:56:47.221Z,4.27
2018-12-09T20:59:14.798Z,7.60
2018-12-09T21:01:42.323Z,8.03
2018-12-09T21:04:09.859Z,6.00
2018-12-09T21:06:37.390Z,4.47
2018-12-09T21:09:05.984Z,6.20
2018-12-09T21:11:33.703Z,4.80
2018-12-09T21:14:01.219Z,5.87
2018-12-09T21:16:28.746Z,4.77
2018-12-09T21:18:56.295Z,5.27
2018-12-09T21:21:23.859Z,4.60
2018-12-09T21:23:51.398Z,4.30
2018-12-09T21:26:18.927Z,8.83
2018-12-09T21:28:46.440Z,5.67
2018-12-09T21:31:13.981Z,5.87
2018-12-09T21:33:41.545Z,6.90
2018-12-09T21:36:09.111Z,6.40
2018-12-09T21:38:36.951Z,8.67
2018-12-09T21:41:04.482Z,6.87
2018-12-09T21:43:32.825Z,5.40
2018-12-09T21:46:00.340Z,5.37
2018-12-09T21:48:27.870Z,5.27
2018-12-09T21:50:55.393Z,7.07
2018-12-09T21:53:22.951Z,7.33
2018-12-09T21:55:50.480Z,7.53
2018-12-09T21:58:18.001Z,7.67
2018-12-09T22:00:45.506Z,6.87
2018-12-09T22:03:13.013Z,4.67
2018-12-09T22:05:40.507Z,6.20
2018-12-09T22:08:07.997Z,6.87
2018-12-09T22:10:35.507Z,6.27
2018-12-09T22:13:02.997Z,6.07
2018-12-09T22:15:30.491Z,6.90
2018-12-09T22:17:58.027Z,5.67
2018-12-09T22:20:25.524Z,7.67
2018-12-09T22:22:53.022Z,4.27
2018-12-09T22:25:20.511Z,7.10
2018-12-09T22:27:48.008Z,5.47
2018-12-09T22:30:15.509Z,8.03
2018-12-09T22:32:43.022Z,8.83
2018-12-09T22:35:10.522Z,9.10
2018-12-09T22:37:38.030Z,6.37
2018-12-09T22:40:06.117Z,9.80
2018-12-09T22:42:33.651Z,9.73
2018-12-09T22:45:01.162Z,5.47
2018-12-09T22:47:28.654Z,8.90
2018-12-09T22:49:56.146Z,9.67
2018-12-09T22:52:23.656Z,8.03
2018-12-09T22:54:51.143Z,6.97
2018-12-09T22:57:18.646Z,6.80
2018-12-09T22:59:46.228Z,7.43
2018-12-09T23:02:19.319Z,6.37
2018-12-09T23:04:46.880Z,7.43
2018-12-09T23:07:20.078Z,7.13
2018-12-09T23:09:47.587Z,8.17
2018-12-09T23:12:15.084Z,5.37
2018-12-09T23:14:42.598Z,6.93
2018-12-09T23:17:10.104Z,7.07
2018-12-09T23:19:37.630Z,5.40
2018-12-09T23:22:05.117Z,7.33
2018-12-09T23:24:32.611Z,5.23
2018-12-09T23:27:00.125Z,4.50
2018-12-09T23:29:27.724Z,5.43
2018-12-09T23:31:55.278Z,5.87
2018-12-09T23:34:22.770Z,6.17
2018-12-09T23:36:50.326Z,4.33
2018-12-09T23:39:17.834Z,9.00
2018-12-09T23:41:45.352Z,6.23
2018-12-09T23:44:12.876Z,8.07
2018-12-09T23:46:40.365Z,5.37
2018-12-09T23:49:07.894Z,9.30
2018-12-09T23:51:35.413Z,7.97
2018-12-09T23:54:02.910Z,7.20
2018-12-09T23:56:30.408Z,7.93
2018-12-09T23:58:57.900Z,6.33
